sensor_id;sensor_type;location;lat;lon;timestamp;pressure;altitude;pressure_sealevel;temperature;humidity
19447;BME280;9862;49.462;11.054;2023-04-28T00:00:35;98019.41;;;13.98;92.92
19447;BME280;9862;49.462;11.054;2023-04-28T00:03:01;98014.06;;;13.98;93.30
19447;BME280;9862;49.462;11.054;2023-04-28T00:05:28;98017.34;;;14.00;93.81
19447;BME280;9862;49.462;11.054;2023-04-28T00:07:55;98020.59;;;14.02;93.58
19447;BME280;9862;49.462;11.054;2023-04-28T00:10:21;98021.41;;;14.02;93.75
19447;BME280;9862;49.462;11.054;2023-04-28T00:12:49;98014.19;;;14.03;93.28
19447;BME280;9862;49.462;11.054;2023-04-28T00:15:16;98002.56;;;14.09;92.07
19447;BME280;9862;49.462;11.054;2023-04-28T00:17:42;98000.00;;;14.02;93.34
19447;BME280;9862;49.462;11.054;2023-04-28T00:20:10;97995.13;;;14.11;91.34
19447;BME280;9862;49.462;11.054;2023-04-28T00:22:37;97997.06;;;14.04;92.48
19447;BME280;9862;49.462;11.054;2023-04-28T00:25:04;98001.28;;;14.00;93.66
19447;BME280;9862;49.462;11.054;2023-04-28T00:27:31;97989.97;;;13.98;94.13
19447;BME280;9862;49.462;11.054;2023-04-28T00:29:59;97983.94;;;14.02;92.55
19447;BME280;9862;49.462;11.054;2023-04-28T00:32:26;97984.75;;;14.03;91.82
19447;BME280;9862;49.462;11.054;2023-04-28T00:34:52;97980.78;;;14.06;91.74
19447;BME280;9862;49.462;11.054;2023-04-28T00:37:19;97979.06;;;13.99;92.28
19447;BME280;9862;49.462;11.054;2023-04-28T00:39:45;97972.19;;;13.92;93.41
19447;BME280;9862;49.462;11.054;2023-04-28T00:42:12;97973.44;;;13.89;93.60
19447;BME280;9862;49.462;11.054;2023-04-28T00:44:39;97974.63;;;13.93;93.19
19447;BME280;9862;49.462;11.054;2023-04-28T00:47:07;97976.47;;;13.81;95.13
19447;BME280;9862;49.462;11.054;2023-04-28T00:49:34;97973.31;;;13.72;95.51
19447;BME280;9862;49.462;11.054;2023-04-28T00:52:03;97964.59;;;13.77;95.42
19447;BME280;9862;49.462;11.054;2023-04-28T00:54:31;97969.91;;;13.65;97.38
19447;BME280;9862;49.462;11.054;2023-04-28T00:56:58;97965.63;;;13.64;99.56
19447;BME280;9862;49.462;11.054;2023-04-28T00:59:27;97962.72;;;13.66;99.30
19447;BME280;9862;49.462;11.054;2023-04-28T01:01:54;97964.00;;;13.63;99.56
19447;BME280;9862;49.462;11.054;2023-04-28T01:04:22;97959.94;;;13.61;100.00
19447;BME280;9862;49.462;11.054;2023-04-28T01:06:50;97950.28;;;13.71;100.00
19447;BME280;9862;49.462;11.054;2023-04-28T01:09:17;97952.72;;;13.73;99.91
19447;BME280;9862;49.462;11.054;2023-04-28T01:11:44;97944.47;;;13.74;98.82
19447;BME280;9862;49.462;11.054;2023-04-28T01:14:10;97947.63;;;13.71;99.07
19447;BME280;9862;49.462;11.054;2023-04-28T01:16:37;97938.56;;;13.72;100.00
19447;BME280;9862;49.462;11.054;2023-04-28T01:19:06;97937.03;;;13.77;99.32
19447;BME280;9862;49.462;11.054;2023-04-28T01:21:34;97935.50;;;13.69;100.00
19447;BME280;9862;49.462;11.054;2023-04-28T01:24:04;97924.94;;;13.62;100.00
19447;BME280;9862;49.462;11.054;2023-04-28T01:26:31;97921.66;;;13.60;100.00
19447;BME280;9862;49.462;11.054;2023-04-28T01:28:58;97923.31;;;13.61;100.00
19447;BME280;9862;49.462;11.054;2023-04-28T01:31:24;97930.63;;;13.66;100.00
19447;BME280;9862;49.462;11.054;2023-04-28T01:33:51;97926.22;;;13.83;100.00
19447;BME280;9862;49.462;11.054;2023-04-28T01:36:17;97932.72;;;13.75;100.00
19447;BME280;9862;49.462;11.054;2023-04-28T01:38:44;97934.59;;;13.75;100.00
19447;BME280;9862;49.462;11.054;2023-04-28T01:41:12;97934.59;;;13.75;100.00
19447;BME280;9862;49.462;11.054;2023-04-28T01:43:38;97933.31;;;13.78;100.00
19447;BME280;9862;49.462;11.054;2023-04-28T01:46:05;97925.41;;;13.83;100.00
19447;BME280;9862;49.462;11.054;2023-04-28T01:48:31;97934.25;;;13.83;100.00
19447;BME280;9862;49.462;11.054;2023-04-28T01:50:58;97922.50;;;13.84;100.00
19447;BME280;9862;49.462;11.054;2023-04-28T01:53:24;97912.63;;;13.85;100.00
19447;BME280;9862;49.462;11.054;2023-04-28T01:55:52;97915.28;;;13.85;100.00
19447;BME280;9862;49.462;11.054;2023-04-28T01:58:20;97916.69;;;13.87;100.00
19447;BME280;9862;49.462;11.054;2023-04-28T02:00:46;97906.34;;;13.91;100.00
19447;BME280;9862;49.462;11.054;2023-04-28T02:03:13;97914.47;;;13.96;100.00
19447;BME280;9862;49.462;11.054;2023-04-28T02:05:40;97909.22;;;13.89;100.00
19447;BME280;9862;49.462;11.054;2023-04-28T02:08:07;97909.47;;;13.88;100.00
19447;BME280;9862;49.462;11.054;2023-04-28T02:10:34;97909.34;;;14.06;100.00
19447;BME280;9862;49.462;11.054;2023-04-28T02:13:01;97909.47;;;13.88;100.00
19447;BME280;9862;49.462;11.054;2023-04-28T02:15:30;97911.66;;;13.79;100.00
19447;BME280;9862;49.462;11.054;2023-04-28T02:17:57;97914.72;;;13.83;100.00
19447;BME280;9862;49.462;11.054;2023-04-28T02:20:26;97909.13;;;13.72;100.00
19447;BME280;9862;49.462;11.054;2023-04-28T02:22:53;97909.31;;;13.59;100.00
19447;BME280;9862;49.462;11.054;2023-04-28T02:25:20;97911.75;;;13.49;100.00
19447;BME280;9862;49.462;11.054;2023-04-28T02:27:47;97913.38;;;13.50;100.00
19447;BME280;9862;49.462;11.054;2023-04-28T02:30:15;97903.63;;;13.56;100.00
19447;BME280;9862;49.462;11.054;2023-04-28T02:32:43;97896.09;;;13.53;100.00
19447;BME280;9862;49.462;11.054;2023-04-28T02:35:09;97885.50;;;13.58;100.00
19447;BME280;9862;49.462;11.054;2023-04-28T02:37:36;97879.34;;;13.57;100.00
19447;BME280;9862;49.462;11.054;2023-04-28T02:40:03;97888.31;;;13.63;100.00
19447;BME280;9862;49.462;11.054;2023-04-28T02:42:30;97889.13;;;13.63;100.00
19447;BME280;9862;49.462;11.054;2023-04-28T02:44:57;97888.88;;;13.65;100.00
19447;BME280;9862;49.462;11.054;2023-04-28T02:47:23;97890.97;;;13.74;100.00
19447;BME280;9862;49.462;11.054;2023-04-28T02:49:51;97881.19;;;13.68;100.00
19447;BME280;9862;49.462;11.054;2023-04-28T02:52:18;97878.19;;;13.65;100.00
19447;BME280;9862;49.462;11.054;2023-04-28T02:54:44;97878.66;;;13.73;100.00
19447;BME280;9862;49.462;11.054;2023-04-28T02:57:13;97878.28;;;13.70;100.00
19447;BME280;9862;49.462;11.054;2023-04-28T02:59:39;97876.91;;;13.67;100.00
19447;BME280;9862;49.462;11.054;2023-04-28T03:02:06;97869.00;;;13.72;100.00
19447;BME280;9862;49.462;11.054;2023-04-28T03:04:33;97880.66;;;13.90;100.00
19447;BME280;9862;49.462;11.054;2023-04-28T03:07:01;97870.16;;;13.77;100.00
19447;BME280;9862;49.462;11.054;2023-04-28T03:09:27;97869.81;;;13.61;100.00
19447;BME280;9862;49.462;11.054;2023-04-28T03:11:54;97858.66;;;13.64;100.00
19447;BME280;9862;49.462;11.054;2023-04-28T03:14:20;97856.56;;;13.66;100.00
19447;BME280;9862;49.462;11.054;2023-04-28T03:16:47;97860.28;;;13.65;100.00
19447;BME280;9862;49.462;11.054;2023-04-28T03:19:14;97850.41;;;13.66;100.00
19447;BME280;9862;49.462;11.054;2023-04-28T03:21:40;97842.84;;;13.74;100.00
19447;BME280;9862;49.462;11.054;2023-04-28T03:24:08;97830.50;;;13.73;100.00
19447;BME280;9862;49.462;11.054;2023-04-28T03:26:35;97825.25;;;13.79;100.00
19447;BME280;9862;49.462;11.054;2023-04-28T03:29:01;97823.63;;;13.89;100.00
19447;BME280;9862;49.462;11.054;2023-04-28T03:31:28;97830.84;;;13.77;100.00
19447;BME280;9862;49.462;11.054;2023-04-28T03:33:54;97832.84;;;13.58;100.00
19447;BME280;9862;49.462;11.054;2023-04-28T03:36:22;97835.16;;;13.66;100.00
19447;BME280;9862;49.462;11.054;2023-04-28T03:38:49;97821.78;;;13.66;100.00
19447;BME280;9862;49.462;11.054;2023-04-28T03:41:17;97815.63;;;13.54;100.00
19447;BME280;9862;49.462;11.054;2023-04-28T03:43:44;97822.72;;;13.60;100.00
19447;BME280;9862;49.462;11.054;2023-04-28T03:46:11;97819.22;;;13.60;100.00
19447;BME280;9862;49.462;11.054;2023-04-28T03:48:37;97823.19;;;13.57;100.00
19447;BME280;9862;49.462;11.054;2023-04-28T03:51:04;97822.13;;;13.58;100.00
19447;BME280;9862;49.462;11.054;2023-04-28T03:53:31;97825.84;;;13.57;100.00
19447;BME280;9862;49.462;11.054;2023-04-28T03:55:57;97817.59;;;13.59;100.00
19447;BME280;9862;49.462;11.054;2023-04-28T03:58:25;97816.47;;;13.55;100.00
19447;BME280;9862;49.462;11.054;2023-04-28T04:00:52;97814.03;;;13.53;100.00
19447;BME280;9862;49.462;11.054;2023-04-28T04:03:19;97804.81;;;13.72;100.00
19447;BME280;9862;49.462;11.054;2023-04-28T04:05:49;97800.31;;;13.61;100.00
19447;BME280;9862;49.462;11.054;2023-04-28T04:08:16;97800.31;;;13.61;100.00
19447;BME280;9862;49.462;11.054;2023-04-28T04:10:42;97797.38;;;13.63;100.00
19447;BME280;9862;49.462;11.054;2023-04-28T04:13:09;97803.41;;;13.58;100.00
19447;BME280;9862;49.462;11.054;2023-04-28T04:15:37;97804.84;;;13.61;100.00
19447;BME280;9862;49.462;11.054;2023-04-28T04:18:04;97794.16;;;13.61;100.00
19447;BME280;9862;49.462;11.054;2023-04-28T04:20:30;97785.06;;;13.73;100.00
19447;BME280;9862;49.462;11.054;2023-04-28T04:22:57;97786.34;;;13.71;100.00
19447;BME280;9862;49.462;11.054;2023-04-28T04:25:23;97788.53;;;13.74;100.00
19447;BME280;9862;49.462;11.054;2023-04-28T04:27:50;97796.81;;;13.72;100.00
19447;BME280;9862;49.462;11.054;2023-04-28T04:30:16;97802.38;;;13.83;100.00
19447;BME280;9862;49.462;11.054;2023-04-28T04:32:44;97809.06;;;13.97;100.00
19447;BME280;9862;49.462;11.054;2023-04-28T04:35:11;97806.53;;;13.79;100.00
19447;BME280;9862;49.462;11.054;2023-04-28T04:37:38;97799.59;;;13.66;100.00
19447;BME280;9862;49.462;11.054;2023-04-28T04:40:06;97796.69;;;13.67;100.00
19447;BME280;9862;49.462;11.054;2023-04-28T04:42:33;97800.31;;;13.61;100.00
19447;BME280;9862;49.462;11.054;2023-04-28T04:44:59;97804.84;;;13.61;100.00
19447;BME280;9862;49.462;11.054;2023-04-28T04:47:26;97796.69;;;13.67;100.00
19447;BME280;9862;49.462;11.054;2023-04-28T04:49:54;97794.66;;;14.38;100.00
19447;BME280;9862;49.462;11.054;2023-04-28T04:52:20;97800.19;;;15.39;100.00
19447;BME280;9862;49.462;11.054;2023-04-28T04:54:47;97787.88;;;15.98;100.00
19447;BME280;9862;49.462;11.054;2023-04-28T04:57:14;97785.03;;;16.27;100.00
19447;BME280;9862;49.462;11.054;2023-04-28T04:59:40;97790.63;;;16.47;100.00
19447;BME280;9862;49.462;11.054;2023-04-28T05:02:07;97787.91;;;16.69;100.00
19447;BME280;9862;49.462;11.054;2023-04-28T05:04:34;97792.22;;;16.48;100.00
19447;BME280;9862;49.462;11.054;2023-04-28T05:07:02;97796.03;;;16.03;100.00
19447;BME280;9862;49.462;11.054;2023-04-28T05:09:28;97805.16;;;15.64;100.00
19447;BME280;9862;49.462;11.054;2023-04-28T05:11:56;97798.16;;;15.29;100.00
19447;BME280;9862;49.462;11.054;2023-04-28T05:14:23;97815.75;;;14.92;100.00
19447;BME280;9862;49.462;11.054;2023-04-28T05:16:49;97812.97;;;14.70;100.00
19447;BME280;9862;49.462;11.054;2023-04-28T05:19:16;97816.88;;;14.50;100.00
19447;BME280;9862;49.462;11.054;2023-04-28T05:21:43;97812.00;;;14.36;100.00
19447;BME280;9862;49.462;11.054;2023-04-28T05:24:13;97812.28;;;14.22;100.00
19447;BME280;9862;49.462;11.054;2023-04-28T05:26:39;97802.41;;;14.23;100.00
19447;BME280;9862;49.462;11.054;2023-04-28T05:29:06;97810.06;;;14.31;100.00
19447;BME280;9862;49.462;11.054;2023-04-28T05:31:32;97812.91;;;14.13;100.00
19447;BME280;9862;49.462;11.054;2023-04-28T05:33:59;97812.56;;;14.09;100.00
19447;BME280;9862;49.462;11.054;2023-04-28T05:36:26;97813.94;;;14.12;100.00
19447;BME280;9862;49.462;11.054;2023-04-28T05:38:53;97814.06;;;14.05;100.00
19447;BME280;9862;49.462;11.054;2023-04-28T05:41:21;97804.53;;;13.97;100.00
19447;BME280;9862;49.462;11.054;2023-04-28T05:43:47;97811.19;;;13.95;100.00
19447;BME280;9862;49.462;11.054;2023-04-28T05:46:15;97803.16;;;13.95;100.00
19447;BME280;9862;49.462;11.054;2023-04-28T05:48:42;97807.44;;;13.96;100.00
19447;BME280;9862;49.462;11.054;2023-04-28T05:51:09;97809.56;;;13.94;100.00
19447;BME280;9862;49.462;11.054;2023-04-28T05:53:35;97811.53;;;13.87;100.00
19447;BME280;9862;49.462;11.054;2023-04-28T05:56:02;97811.28;;;13.88;100.00
19447;BME280;9862;49.462;11.054;2023-04-28T05:58:30;97802.69;;;13.86;100.00
19447;BME280;9862;49.462;11.054;2023-04-28T06:00:57;97797.47;;;13.91;100.00
19447;BME280;9862;49.462;11.054;2023-04-28T06:03:24;97798.94;;;13.99;100.00
19447;BME280;9862;49.462;11.054;2023-04-28T06:05:51;97798.38;;;13.97;100.00
19447;BME280;9862;49.462;11.054;2023-04-28T06:08:18;97802.09;;;13.96;100.00
19447;BME280;9862;49.462;11.054;2023-04-28T06:10:44;97799.06;;;14.04;100.00
19447;BME280;9862;49.462;11.054;2023-04-28T06:13:11;97801.00;;;14.20;100.00
19447;BME280;9862;49.462;11.054;2023-04-28T06:15:39;97799.09;;;14.32;100.00
19447;BME280;9862;49.462;11.054;2023-04-28T06:18:05;97798.56;;;14.19;100.00
19447;BME280;9862;49.462;11.054;2023-04-28T06:20:33;97807.78;;;14.11;100.00
19447;BME280;9862;49.462;11.054;2023-04-28T06:23:00;97804.53;;;14.09;100.00
19447;BME280;9862;49.462;11.054;2023-04-28T06:25:28;97804.75;;;14.19;100.00
19447;BME280;9862;49.462;11.054;2023-04-28T06:27:54;97804.91;;;14.01;100.00
19447;BME280;9862;49.462;11.054;2023-04-28T06:30:21;97804.22;;;13.94;100.00
19447;BME280;9862;49.462;11.054;2023-04-28T06:32:50;97801.63;;;13.99;100.00
19447;BME280;9862;49.462;11.054;2023-04-28T06:35:17;97797.03;;;13.83;100.00
19447;BME280;9862;49.462;11.054;2023-04-28T06:37:43;97798.38;;;13.97;100.00
19447;BME280;9862;49.462;11.054;2023-04-28T06:40:10;97790.94;;;13.87;100.00
19447;BME280;9862;49.462;11.054;2023-04-28T06:42:37;97789.22;;;13.81;100.00
19447;BME280;9862;49.462;11.054;2023-04-28T06:45:04;97789.81;;;13.71;100.00
19447;BME280;9862;49.462;11.054;2023-04-28T06:47:31;97787.03;;;13.66;100.00
19447;BME280;9862;49.462;11.054;2023-04-28T06:49:59;97788.91;;;13.54;100.00
19447;BME280;9862;49.462;11.054;2023-04-28T06:52:26;97775.53;;;13.54;100.00
19447;BME280;9862;49.462;11.054;2023-04-28T06:54:54;97771.56;;;13.57;100.00
19447;BME280;9862;49.462;11.054;2023-04-28T06:57:20;97766.22;;;13.57;100.00
19447;BME280;9862;49.462;11.054;2023-04-28T06:59:47;97783.09;;;13.57;100.00
19447;BME280;9862;49.462;11.054;2023-04-28T07:02:13;97778.22;;;13.54;100.00
19447;BME280;9862;49.462;11.054;2023-04-28T07:04:40;97779.94;;;13.49;100.00
19447;BME280;9862;49.462;11.054;2023-04-28T07:07:08;97784.25;;;13.61;100.00
19447;BME280;9862;49.462;11.054;2023-04-28T07:09:35;97779.47;;;13.63;100.00
19447;BME280;9862;49.462;11.054;2023-04-28T07:12:01;97788.66;;;13.56;100.00
19447;BME280;9862;49.462;11.054;2023-04-28T07:14:28;97778.31;;;13.48;100.00
19447;BME280;9862;49.462;11.054;2023-04-28T07:16:55;97780.75;;;13.49;100.00
19447;BME280;9862;49.462;11.054;2023-04-28T07:19:21;97787.88;;;13.43;100.00
19447;BME280;9862;49.462;11.054;2023-04-28T07:21:48;97777.72;;;13.57;100.00
19447;BME280;9862;49.462;11.054;2023-04-28T07:24:16;97774.00;;;13.58;100.00
19447;BME280;9862;49.462;11.054;2023-04-28T07:26:42;97780.97;;;13.59;100.00
19447;BME280;9862;49.462;11.054;2023-04-28T07:29:09;97796.09;;;13.65;100.00
19447;BME280;9862;49.462;11.054;2023-04-28T07:31:37;97807.97;;;13.46;100.00
19447;BME280;9862;49.462;11.054;2023-04-28T07:34:04;97810.31;;;13.42;100.00
19447;BME280;9862;49.462;11.054;2023-04-28T07:36:31;97807.50;;;13.49;100.00
19447;BME280;9862;49.462;11.054;2023-04-28T07:38:59;97812.59;;;13.39;100.00
19447;BME280;9862;49.462;11.054;2023-04-28T07:41:27;97806.09;;;13.35;100.00
19447;BME280;9862;49.462;11.054;2023-04-28T07:43:54;97810.16;;;13.37;100.00
19447;BME280;9862;49.462;11.054;2023-04-28T07:46:20;97801.91;;;13.39;100.00
19447;BME280;9862;49.462;11.054;2023-04-28T07:48:47;97814.59;;;13.32;100.00
19447;BME280;9862;49.462;11.054;2023-04-28T07:51:14;97817.72;;;13.29;100.00
19447;BME280;9862;49.462;11.054;2023-04-28T07:53:41;97816.09;;;13.28;100.00
19447;BME280;9862;49.462;11.054;2023-04-28T07:56:07;97815.75;;;13.36;100.00
19447;BME280;9862;49.462;11.054;2023-04-28T07:58:35;97815.84;;;13.41;100.00
19447;BME280;9862;49.462;11.054;2023-04-28T08:01:02;97815.03;;;13.40;100.00
19447;BME280;9862;49.462;11.054;2023-04-28T08:03:28;97823.28;;;13.39;100.00
19447;BME280;9862;49.462;11.054;2023-04-28T08:05:55;97817.28;;;13.32;100.00
19447;BME280;9862;49.462;11.054;2023-04-28T08:08:22;97814.84;;;13.42;100.00
19447;BME280;9862;49.462;11.054;2023-04-28T08:10:49;97802.03;;;13.44;100.00
19447;BME280;9862;49.462;11.054;2023-04-28T08:13:16;97817.03;;;13.45;100.00
19447;BME280;9862;49.462;11.054;2023-04-28T08:15:46;97808.19;;;13.33;100.00
19447;BME280;9862;49.462;11.054;2023-04-28T08:18:12;97809.81;;;13.34;100.00
19447;BME280;9862;49.462;11.054;2023-04-28T08:20:39;97808.78;;;13.35;100.00
19447;BME280;9862;49.462;11.054;2023-04-28T08:23:06;97802.84;;;13.33;100.00
19447;BME280;9862;49.462;11.054;2023-04-28T08:25:32;97801.69;;;13.40;100.00
19447;BME280;9862;49.462;11.054;2023-04-28T08:27:59;97795.66;;;13.45;100.00
19447;BME280;9862;49.462;11.054;2023-04-28T08:30:27;97789.97;;;13.53;100.00
19447;BME280;9862;49.462;11.054;2023-04-28T08:32:55;97785.50;;;13.59;100.00
19447;BME280;9862;49.462;11.054;2023-04-28T08:35:22;97777.06;;;13.62;100.00
19447;BME280;9862;49.462;11.054;2023-04-28T08:37:48;97773.66;;;13.66;100.00
19447;BME280;9862;49.462;11.054;2023-04-28T08:40:15;97771.78;;;13.67;100.00
19447;BME280;9862;49.462;11.054;2023-04-28T08:42:43;97763.53;;;13.68;100.00
19447;BME280;9862;49.462;11.054;2023-04-28T08:45:12;97753.03;;;13.90;100.00
19447;BME280;9862;49.462;11.054;2023-04-28T08:47:39;97753.03;;;13.90;100.00
19447;BME280;9862;49.462;11.054;2023-04-28T08:50:12;97747.03;;;13.71;100.00
19447;BME280;9862;49.462;11.054;2023-04-28T08:52:39;97748.09;;;13.59;100.00
19447;BME280;9862;49.462;11.054;2023-04-28T08:55:08;97753.22;;;13.49;100.00
19447;BME280;9862;49.462;11.054;2023-04-28T08:57:37;97752.41;;;13.48;100.00
19447;BME280;9862;49.462;11.054;2023-04-28T09:00:05;97755.91;;;13.37;100.00
19447;BME280;9862;49.462;11.054;2023-04-28T09:02:32;97761.34;;;13.30;100.00
19447;BME280;9862;49.462;11.054;2023-04-28T09:04:58;97756.13;;;13.35;100.00
19447;BME280;9862;49.462;11.054;2023-04-28T09:07:26;97755.41;;;13.40;100.00
19447;BME280;9862;49.462;11.054;2023-04-28T09:10:14;97749.25;;;13.39;100.00
19447;BME280;9862;49.462;11.054;2023-04-28T09:12:41;97763.09;;;13.36;100.00
19447;BME280;9862;49.462;11.054;2023-04-28T09:15:08;97769.16;;;13.32;100.00
19447;BME280;9862;49.462;11.054;2023-04-28T09:17:46;97768.69;;;13.35;100.00
19447;BME280;9862;49.462;11.054;2023-04-28T09:20:18;97760.78;;;13.28;100.00
19447;BME280;9862;49.462;11.054;2023-04-28T09:22:47;97769.03;;;13.27;100.00
19447;BME280;9862;49.462;11.054;2023-04-28T09:25:14;97763.56;;;13.33;100.00
19447;BME280;9862;49.462;11.054;2023-04-28T09:27:41;97772.97;;;13.36;100.00
19447;BME280;9862;49.462;11.054;2023-04-28T09:30:08;97774.59;;;13.37;100.00
19447;BME280;9862;49.462;11.054;2023-04-28T09:32:35;97767.16;;;13.39;100.00
19447;BME280;9862;49.462;11.054;2023-04-28T09:35:02;97765.19;;;13.46;100.00
19447;BME280;9862;49.462;11.054;2023-04-28T09:37:29;97769.13;;;13.55;100.00
19447;BME280;9862;49.462;11.054;2023-04-28T09:40:04;97780.66;;;13.56;100.00
19447;BME280;9862;49.462;11.054;2023-04-28T09:42:32;97772.50;;;13.62;100.00
19447;BME280;9862;49.462;11.054;2023-04-28T09:44:59;97765.16;;;13.69;100.00
19447;BME280;9862;49.462;11.054;2023-04-28T09:47:28;97765.16;;;13.69;100.00
19447;BME280;9862;49.462;11.054;2023-04-28T09:49:55;97746.56;;;13.74;100.00
19447;BME280;9862;49.462;11.054;2023-04-28T09:52:22;97741.53;;;13.78;100.00
19447;BME280;9862;49.462;11.054;2023-04-28T09:54:49;97743.59;;;13.88;100.00
19447;BME280;9862;49.462;11.054;2023-04-28T09:57:18;97751.09;;;14.14;100.00
19447;BME280;9862;49.462;11.054;2023-04-28T09:59:46;97750.63;;;14.17;100.00
19447;BME280;9862;49.462;11.054;2023-04-28T10:02:14;97760.19;;;14.13;100.00
19447;BME280;9862;49.462;11.054;2023-04-28T10:04:43;97751.72;;;14.04;100.00
19447;BME280;9862;49.462;11.054;2023-04-28T10:07:10;97732.75;;;14.06;100.00
19447;BME280;9862;49.462;11.054;2023-04-28T10:09:38;97730.44;;;13.98;100.00
19447;BME280;9862;49.462;11.054;2023-04-28T10:12:08;97738.66;;;14.08;100.00
19447;BME280;9862;49.462;11.054;2023-04-28T10:14:36;97729.88;;;13.96;100.00
19447;BME280;9862;49.462;11.054;2023-04-28T10:17:03;97726.50;;;13.89;100.00
19447;BME280;9862;49.462;11.054;2023-04-28T10:19:30;97721.16;;;13.89;100.00
19447;BME280;9862;49.462;11.054;2023-04-28T10:22:05;97716.25;;;13.97;100.00
19447;BME280;9862;49.462;11.054;2023-04-28T10:24:47;97696.47;;;13.98;100.00
19447;BME280;9862;49.462;11.054;2023-04-28T10:27:18;97700.19;;;14.09;100.00
19447;BME280;9862;49.462;11.054;2023-04-28T10:29:46;97710.88;;;14.09;100.00
19447;BME280;9862;49.462;11.054;2023-04-28T10:32:17;97712.59;;;14.15;100.00
19447;BME280;9862;49.462;11.054;2023-04-28T10:34:44;97703.97;;;14.13;100.00
19447;BME280;9862;49.462;11.054;2023-04-28T10:37:11;97704.06;;;14.18;100.00
19447;BME280;9862;49.462;11.054;2023-04-28T10:39:39;97711.38;;;14.23;100.00
19447;BME280;9862;49.462;11.054;2023-04-28T10:48:17;97712.88;;;14.30;100.00
19447;BME280;9862;49.462;11.054;2023-04-28T10:54:12;97716.00;;;14.27;100.00
19447;BME280;9862;49.462;11.054;2023-04-28T10:56:41;97717.16;;;14.31;100.00
19447;BME280;9862;49.462;11.054;2023-04-28T10:59:28;97709.31;;;14.42;100.00
19447;BME280;9862;49.462;11.054;2023-04-28T11:02:35;97708.22;;;14.54;100.00
19447;BME280;9862;49.462;11.054;2023-04-28T11:05:16;97705.00;;;14.69;100.00
19447;BME280;9862;49.462;11.054;2023-04-28T11:11:23;97700.94;;;14.83;100.00
19447;BME280;9862;49.462;11.054;2023-04-28T11:13:52;97708.00;;;14.89;100.00
19447;BME280;9862;49.462;11.054;2023-04-28T11:16:25;97708.66;;;14.97;100.00
19447;BME280;9862;49.462;11.054;2023-04-28T11:19:00;97699.38;;;15.04;100.00
19447;BME280;9862;49.462;11.054;2023-04-28T11:21:30;97703.53;;;15.12;100.00
19447;BME280;9862;49.462;11.054;2023-04-28T11:23:58;97705.13;;;15.13;100.00
19447;BME280;9862;49.462;11.054;2023-04-28T11:26:26;97708.38;;;15.15;100.00
19447;BME280;9862;49.462;11.054;2023-04-28T11:28:54;97708.38;;;15.15;100.00
19447;BME280;9862;49.462;11.054;2023-04-28T11:31:22;97701.41;;;15.14;100.00
19447;BME280;9862;49.462;11.054;2023-04-28T11:33:52;97707.41;;;15.21;100.00
19447;BME280;9862;49.462;11.054;2023-04-28T11:36:30;97705.22;;;15.18;100.00
19447;BME280;9862;49.462;11.054;2023-04-28T11:38:58;97711.41;;;15.18;100.00
19447;BME280;9862;49.462;11.054;2023-04-28T11:41:25;97705.13;;;15.13;100.00
19447;BME280;9862;49.462;11.054;2023-04-28T11:43:51;97703.00;;;15.15;100.00
19447;BME280;9862;49.462;11.054;2023-04-28T11:46:19;97703.09;;;15.20;100.00
19447;BME280;9862;49.462;11.054;2023-04-28T11:48:46;97703.34;;;15.35;100.00
19447;BME280;9862;49.462;11.054;2023-04-28T11:51:31;97704.69;;;15.38;100.00
19447;BME280;9862;49.462;11.054;2023-04-28T11:53:59;97707.06;;;15.34;100.00
19447;BME280;9862;49.462;11.054;2023-04-28T11:56:26;97700.19;;;15.43;100.00
19447;BME280;9862;49.462;11.054;2023-04-28T11:58:59;97700.84;;;15.51;100.00
19447;BME280;9862;49.462;11.054;2023-04-28T12:01:26;97703.03;;;15.54;100.00
19447;BME280;9862;49.462;11.054;2023-04-28T12:03:53;97695.06;;;15.59;100.00
19447;BME280;9862;49.462;11.054;2023-04-28T12:06:20;97695.63;;;15.61;100.00
19447;BME280;9862;49.462;11.054;2023-04-28T12:08:49;97688.16;;;15.63;100.00
19447;BME280;9862;49.462;11.054;2023-04-28T12:11:15;97691.22;;;15.71;100.00
19447;BME280;9862;49.462;11.054;2023-04-28T12:13:42;97686.72;;;15.77;100.00
19447;BME280;9862;49.462;11.054;2023-04-28T12:16:10;97684.47;;;15.69;100.00
19447;BME280;9862;49.462;11.054;2023-04-28T12:18:37;97701.25;;;15.81;100.00
19447;BME280;9862;49.462;11.054;2023-04-28T12:21:04;97704.16;;;15.74;100.00
19447;BME280;9862;49.462;11.054;2023-04-28T12:23:46;97693.50;;;15.63;100.00
19447;BME280;9862;49.462;11.054;2023-04-28T12:26:23;97682.72;;;15.58;100.00
19447;BME280;9862;49.462;11.054;2023-04-28T12:28:50;97684.31;;;15.59;100.00
19447;BME280;9862;49.462;11.054;2023-04-28T12:31:17;97682.72;;;15.58;100.00
19447;BME280;9862;49.462;11.054;2023-04-28T12:33:43;97678.00;;;15.65;100.00
19447;BME280;9862;49.462;11.054;2023-04-28T12:36:10;97687.28;;;15.79;100.00
19447;BME280;9862;49.462;11.054;2023-04-28T12:38:46;97687.84;;;15.81;100.00
19447;BME280;9862;49.462;11.054;2023-04-28T12:41:14;97693.84;;;15.88;100.00
19447;BME280;9862;49.462;11.054;2023-04-28T12:43:41;97684.38;;;16.08;100.00
19447;BME280;9862;49.462;11.054;2023-04-28T12:46:08;97682.84;;;16.12;100.00
19447;BME280;9862;49.462;11.054;2023-04-28T12:48:36;97676.88;;;16.10;100.00
19447;BME280;9862;49.462;11.054;2023-04-28T12:51:03;97675.88;;;16.16;100.00
19447;BME280;9862;49.462;11.054;2023-04-28T12:53:30;97684.59;;;16.28;100.00
19447;BME280;9862;49.462;11.054;2023-04-28T12:55:56;97684.56;;;16.23;100.00
19447;BME280;9862;49.462;11.054;2023-04-28T12:58:25;97676.50;;;16.23;100.00
19447;BME280;9862;49.462;11.054;2023-04-28T13:00:51;97689.31;;;16.16;100.00
19447;BME280;9862;49.462;11.054;2023-04-28T13:03:18;97702.13;;;16.09;100.00
19447;BME280;9862;49.462;11.054;2023-04-28T13:05:45;97696.13;;;16.01;100.00